Time;durP1;ratioP1;P1;durP2;ratioP2;P2;SDS_P1;SDS_P2;PMS_P1;PMS_P2;Temp;Humidity;BMP_temperature;BMP_pressure;BME280_temperature;BME280_humidity;BME280_pressure;Samples;Min_cycle;Max_cycle;Signal;HPM_P1;HPM_P2
2023/10/01 00:00:25;;;;;;;9.93;6.43;;;11.10;35.00;;;;;;5034529;28;20435;-72
2023/10/01 00:02:51;;;;;;;11.47;7.37;;;11.00;35.30;;;;;;5052517;28;20889;-71
2023/10/01 00:05:17;;;;;;;8.87;6.23;;;11.00;36.10;;;;;;5052321;28;20449;-69
2023/10/01 00:07:43;;;;;;;17.13;6.97;;;10.90;35.90;;;;;;5034426;28;20698;-69
2023/10/01 00:10:10;;;;;;;8.07;6.97;;;10.90;38.30;;;;;;5035479;28;20498;-69
2023/10/01 00:12:46;;;;;;;16.97;7.53;;;10.90;38.00;;;;;;5052489;28;20255;-69
2023/10/01 00:15:13;;;;;;;15.07;8.27;;;10.80;37.50;;;;;;5052333;28;20417;-71
2023/10/01 00:17:40;;;;;;;13.40;8.40;;;10.80;38.80;;;;;;5052493;28;20476;-69
2023/10/01 00:20:23;;;;;;;9.63;6.90;;;10.80;38.80;;;;;;5052610;28;20496;-70
2023/10/01 00:23:05;;;;;;;11.87;7.43;;;10.80;37.70;;;;;;5052314;28;20413;-69
2023/10/01 00:25:32;;;;;;;9.00;5.60;;;10.80;37.20;;;;;;5052155;28;20594;-69
2023/10/01 00:27:58;;;;;;;11.87;6.60;;;10.70;36.80;;;;;;5034091;28;20460;-69
2023/10/01 00:30:24;;;;;;;13.27;6.73;;;10.70;36.80;;;;;;5051912;28;20414;-68
2023/10/01 00:32:50;;;;;;;10.33;5.87;;;10.70;36.10;;;;;;5051965;28;20409;-69
2023/10/01 00:35:16;;;;;;;11.70;6.97;;;10.60;36.30;;;;;;5051868;28;20464;-71
2023/10/01 00:37:42;;;;;;;14.60;7.23;;;10.60;36.70;;;;;;5051977;28;20182;-70
2023/10/01 00:40:09;;;;;;;8.77;6.30;;;10.50;36.00;;;;;;5033933;28;20427;-68
2023/10/01 00:42:36;;;;;;;11.10;6.23;;;10.50;37.70;;;;;;5051914;28;20201;-69
2023/10/01 00:45:14;;;;;;;10.87;5.77;;;10.50;37.50;;;;;;5051610;28;20509;-68
2023/10/01 00:47:42;;;;;;;13.23;7.40;;;10.50;37.80;;;;;;5033967;28;20788;-68
2023/10/01 00:50:11;;;;;;;13.63;7.73;;;10.50;37.50;;;;;;5051750;28;20963;-68
2023/10/01 00:52:37;;;;;;;11.87;8.00;;;10.40;37.80;;;;;;5051720;28;20463;-68
2023/10/01 00:55:05;;;;;;;13.40;6.53;;;10.40;37.80;;;;;;5051738;28;20413;-69
2023/10/01 00:57:30;;;;;;;9.70;7.00;;;10.40;38.30;;;;;;5033793;28;20420;-69
2023/10/01 00:59:56;;;;;;;14.90;6.97;;;10.40;39.60;;;;;;5033848;28;20440;-71
2023/10/01 01:02:22;;;;;;;11.43;7.77;;;10.40;38.50;;;;;;5051500;28;20198;-68
2023/10/01 01:05:05;;;;;;;13.73;6.97;;;10.40;38.30;;;;;;5051576;28;20174;-70
2023/10/01 01:07:32;;;;;;;9.80;7.00;;;10.40;38.80;;;;;;5033952;28;20469;-69
2023/10/01 01:10:00;;;;;;;13.63;7.80;;;10.30;38.80;;;;;;5051712;28;20492;-69
2023/10/01 01:12:27;;;;;;;18.53;7.77;;;10.30;40.20;;;;;;5051384;28;20822;-71
2023/10/01 01:14:54;;;;;;;16.00;7.70;;;10.30;40.80;;;;;;5033557;28;20423;-71
2023/10/01 01:17:21;;;;;;;10.13;6.00;;;10.20;40.40;;;;;;5033727;28;20435;-68
2023/10/01 01:19:51;;;;;;;9.70;7.20;;;10.20;41.40;;;;;;5051550;28;20408;-70
2023/10/01 01:22:28;;;;;;;10.70;7.63;;;10.20;41.50;;;;;;5051472;28;20495;-68
2023/10/01 01:25:00;;;;;;;11.20;5.90;;;10.20;42.60;;;;;;5051366;28;20415;-69
2023/10/01 01:27:31;;;;;;;12.13;7.50;;;10.20;42.80;;;;;;5051587;28;20456;-69
2023/10/01 01:29:57;;;;;;;10.50;6.33;;;10.20;42.40;;;;;;5053832;28;20814;-69
2023/10/01 01:32:24;;;;;;;11.03;6.70;;;10.30;42.70;;;;;;5055283;28;20519;-71
2023/10/01 01:34:52;;;;;;;7.73;6.23;;;10.20;42.50;;;;;;5037386;28;20178;-69
2023/10/01 01:40:13;;;;;;;10.23;6.63;;;10.20;44.10;;;;;;5055367;28;20466;-68
2023/10/01 01:42:39;;;;;;;11.93;6.50;;;10.20;44.10;;;;;;5055204;28;20436;-70
2023/10/01 01:45:25;;;;;;;11.30;6.20;;;10.20;44.20;;;;;;5037398;28;20423;-69
2023/10/01 01:47:51;;;;;;;8.77;6.90;;;10.20;43.10;;;;;;5055221;28;20201;-68
2023/10/01 01:50:21;;;;;;;8.70;5.80;;;10.20;45.10;;;;;;5055140;28;20422;-69
2023/10/01 01:52:49;;;;;;;10.50;6.63;;;10.20;45.40;;;;;;5055216;28;20611;-69
2023/10/01 01:55:34;;;;;;;9.80;6.53;;;10.20;43.80;;;;;;5036938;28;20419;-69
2023/10/01 01:58:10;;;;;;;10.07;6.07;;;10.20;44.10;;;;;;5054981;28;20424;-69
2023/10/01 02:00:47;;;;;;;10.97;7.20;;;10.20;45.30;;;;;;5054837;28;20419;-69
2023/10/01 02:03:14;;;;;;;13.30;6.30;;;10.20;44.00;;;;;;5054912;28;20454;-69
2023/10/01 02:05:41;;;;;;;12.53;6.53;;;10.20;43.40;;;;;;5054593;28;20440;-68
2023/10/01 02:08:23;;;;;;;13.30;7.70;;;10.20;44.20;;;;;;5054707;28;20527;-68
2023/10/01 02:10:54;;;;;;;9.03;5.83;;;10.20;43.60;;;;;;5055064;28;21001;-69
2023/10/01 02:13:21;;;;;;;8.80;6.30;;;10.10;43.80;;;;;;5054737;28;20412;-68
2023/10/01 02:15:47;;;;;;;12.57;8.10;;;10.10;44.40;;;;;;5036725;28;20427;-69
2023/10/01 02:18:19;;;;;;;13.67;6.90;;;10.10;44.20;;;;;;5054941;28;20908;-69
2023/10/01 02:20:52;;;;;;;12.97;6.70;;;10.00;44.50;;;;;;5036722;28;20476;-69
2023/10/01 02:23:32;;;;;;;9.03;7.03;;;10.10;44.00;;;;;;5054827;28;20469;-69
2023/10/01 02:26:00;;;;;;;12.43;6.73;;;10.00;43.90;;;;;;5054713;28;20823;-69
2023/10/01 02:28:32;;;;;;;11.90;7.73;;;10.00;44.10;;;;;;5054467;28;20462;-69
2023/10/01 02:31:00;;;;;;;10.73;6.37;;;9.90;44.10;;;;;;5054546;28;20432;-69
2023/10/01 02:33:55;;;;;;;11.53;6.50;;;9.90;44.30;;;;;;5054290;28;20405;-70
2023/10/01 02:36:22;;;;;;;9.83;6.43;;;9.90;45.40;;;;;;5054422;28;20416;-69
2023/10/01 02:38:53;;;;;;;10.97;7.17;;;9.90;45.10;;;;;;5036446;28;20431;-68
2023/10/01 02:41:22;;;;;;;12.27;6.80;;;9.90;45.30;;;;;;5035402;28;20496;-69
2023/10/01 02:43:50;;;;;;;10.00;7.10;;;9.90;44.50;;;;;;5035980;28;20435;-69
2023/10/01 02:46:16;;;;;;;9.70;6.70;;;9.80;45.80;;;;;;5054108;28;20409;-69
2023/10/01 02:48:42;;;;;;;13.23;6.83;;;9.80;46.40;;;;;;5054104;28;21022;-69
2023/10/01 02:51:15;;;;;;;11.60;6.67;;;9.80;45.60;;;;;;5054097;28;20205;-69
2023/10/01 02:54:06;;;;;;;10.10;7.53;;;9.70;45.90;;;;;;5053819;28;20939;-69
2023/10/01 02:56:33;;;;;;;15.60;6.07;;;9.70;47.10;;;;;;5036106;28;20419;-69
2023/10/01 02:59:09;;;;;;;10.90;7.47;;;9.70;47.10;;;;;;5053931;28;20416;-69
2023/10/01 03:01:37;;;;;;;13.13;7.60;;;9.60;47.00;;;;;;5053718;28;20442;-69
2023/10/01 03:04:08;;;;;;;11.60;7.00;;;9.60;47.40;;;;;;5053604;28;20984;-69
2023/10/01 03:06:34;;;;;;;8.80;5.87;;;9.60;48.10;;;;;;5053642;28;20415;-69
2023/10/01 03:09:00;;;;;;;11.87;6.53;;;9.50;48.00;;;;;;5053744;28;20470;-69
2023/10/01 03:11:26;;;;;;;11.47;8.00;;;9.50;48.00;;;;;;5053706;28;20204;-69
2023/10/01 03:13:54;;;;;;;12.37;7.27;;;9.50;48.30;;;;;;5053600;28;20415;-69
2023/10/01 03:16:42;;;;;;;10.17;7.30;;;9.60;49.20;;;;;;5035703;28;20426;-69
2023/10/01 03:19:19;;;;;;;11.13;6.90;;;9.70;49.80;;;;;;5053334;28;20416;-69
2023/10/01 03:24:45;;;;;;;9.60;6.50;;;9.60;49.00;;;;;;5029535;28;20946;-69
2023/10/01 03:27:24;;;;;;;12.57;7.10;;;9.50;48.40;;;;;;5035326;28;20934;-69
2023/10/01 03:29:54;;;;;;;15.90;7.23;;;9.50;49.60;;;;;;5053473;28;20407;-69
2023/10/01 03:32:29;;;;;;;10.77;6.60;;;9.50;50.00;;;;;;5053153;28;20521;-69
2023/10/01 03:34:55;;;;;;;9.90;7.63;;;9.60;50.10;;;;;;5052977;28;20464;-70
2023/10/01 03:37:27;;;;;;;10.77;8.30;;;9.50;49.00;;;;;;5053321;28;20872;-69
2023/10/01 03:39:53;;;;;;;12.83;7.53;;;9.50;49.90;;;;;;5053273;28;20519;-69
2023/10/01 03:42:19;;;;;;;13.67;7.80;;;9.50;50.80;;;;;;5053556;28;20431;-69
2023/10/01 03:47:29;;;;;;;14.10;7.10;;;9.50;49.40;;;;;;5053020;28;20209;-69
2023/10/01 03:49:55;;;;;;;8.90;5.40;;;9.60;49.80;;;;;;5052831;28;20408;-69
2023/10/01 03:52:21;;;;;;;14.80;6.63;;;9.50;50.00;;;;;;5052829;28;20198;-70
2023/10/01 03:55:00;;;;;;;8.23;5.70;;;9.60;50.70;;;;;;5034726;28;20420;-69
2023/10/01 03:57:29;;;;;;;11.80;6.80;;;9.50;49.10;;;;;;5053415;28;20495;-69
2023/10/01 03:59:57;;;;;;;17.47;6.83;;;9.50;50.10;;;;;;5052789;28;20919;-69
2023/10/01 04:02:27;;;;;;;11.63;6.70;;;9.50;51.00;;;;;;5034852;28;20445;-69
2023/10/01 04:05:01;;;;;;;13.40;7.13;;;9.40;49.90;;;;;;5052565;28;20412;-69
2023/10/01 04:07:42;;;;;;;10.03;6.83;;;9.40;49.30;;;;;;5052703;28;20543;-69
2023/10/01 04:10:13;;;;;;;14.10;8.10;;;9.40;50.60;;;;;;5052546;28;20457;-69
2023/10/01 04:12:49;;;;;;;10.47;6.33;;;9.40;49.50;;;;;;5052688;28;20456;-69
2023/10/01 04:15:31;;;;;;;13.50;9.00;;;9.40;49.80;;;;;;5052473;28;20414;-69
2023/10/01 04:20:55;;;;;;;14.10;7.43;;;9.40;50.90;;;;;;5052608;28;20430;-68
2023/10/01 04:23:29;;;;;;;11.03;7.60;;;9.30;50.10;;;;;;5052581;28;20541;-68
2023/10/01 04:26:08;;;;;;;10.47;7.73;;;9.30;50.80;;;;;;5034410;28;20419;-70
2023/10/01 04:28:35;;;;;;;12.37;7.27;;;9.30;51.70;;;;;;5052437;28;20464;-68
2023/10/01 04:31:07;;;;;;;17.27;8.17;;;9.30;51.70;;;;;;5052161;28;20426;-68
2023/10/01 04:33:34;;;;;;;11.10;7.07;;;9.30;51.80;;;;;;5052336;28;20460;-69
2023/10/01 04:36:01;;;;;;;14.37;6.50;;;9.30;51.70;;;;;;5052109;28;20918;-69
2023/10/01 04:38:29;;;;;;;16.97;9.73;;;9.30;50.70;;;;;;5034068;28;20177;-68
2023/10/01 04:41:03;;;;;;;18.70;11.37;;;9.30;51.00;;;;;;5034375;28;20982;-69
2023/10/01 04:43:34;;;;;;;22.47;13.20;;;9.20;51.60;;;;;;5052161;28;20407;-69
2023/10/01 04:46:00;;;;;;;15.87;9.77;;;9.20;51.60;;;;;;5051937;28;20426;-68
2023/10/01 04:48:26;;;;;;;17.30;9.00;;;9.20;51.20;;;;;;5034059;28;20821;-68
2023/10/01 04:50:53;;;;;;;11.50;10.30;;;9.20;51.00;;;;;;5033982;28;20449;-68
2023/10/01 04:53:20;;;;;;;12.53;7.03;;;9.20;51.60;;;;;;5051891;28;20177;-70
2023/10/01 04:55:57;;;;;;;16.70;7.70;;;9.20;51.60;;;;;;5051805;28;20411;-69
2023/10/01 04:58:24;;;;;;;14.83;7.37;;;9.10;51.60;;;;;;5051972;28;20510;-69
2023/10/01 05:00:50;;;;;;;19.23;7.93;;;9.10;51.60;;;;;;5051777;28;20450;-69
2023/10/01 05:03:16;;;;;;;13.90;7.93;;;9.10;51.60;;;;;;5052086;28;20445;-69
2023/10/01 05:05:45;;;;;;;13.10;6.70;;;9.10;52.00;;;;;;5058057;28;20439;-69
2023/10/01 05:08:13;;;;;;;26.90;8.00;;;9.00;51.50;;;;;;5040475;28;20513;-69
2023/10/01 05:10:52;;;;;;;13.10;7.60;;;9.10;51.90;;;;;;5058175;28;20410;-69
2023/10/01 05:13:20;;;;;;;12.13;7.67;;;9.00;51.50;;;;;;5058383;28;20438;-69
2023/10/01 05:15:49;;;;;;;14.87;7.40;;;9.00;52.40;;;;;;5058235;28;20420;-70
2023/10/01 05:18:17;;;;;;;9.67;7.13;;;9.00;52.30;;;;;;5058428;28;20412;-69
2023/10/01 05:20:44;;;;;;;11.73;6.50;;;9.00;52.30;;;;;;5058174;28;20954;-69
2023/10/01 05:23:10;;;;;;;12.80;8.00;;;9.10;51.80;;;;;;5058389;28;20414;-70
2023/10/01 05:25:35;;;;;;;14.73;7.03;;;9.10;51.60;;;;;;5058196;28;20438;-69
2023/10/01 05:28:03;;;;;;;16.27;7.97;;;9.10;50.60;;;;;;5058294;28;20207;-69
2023/10/01 05:30:34;;;;;;;11.90;7.40;;;9.00;50.80;;;;;;5058131;28;20557;-69
2023/10/01 05:33:01;;;;;;;9.47;5.97;;;9.00;51.50;;;;;;5058310;28;20411;-69
2023/10/01 05:35:28;;;;;;;14.90;8.57;;;9.00;51.90;;;;;;5040176;28;20788;-69
2023/10/01 05:37:54;;;;;;;13.67;7.63;;;9.10;52.90;;;;;;5058265;28;20405;-69
2023/10/01 05:40:19;;;;;;;14.73;7.93;;;9.00;53.10;;;;;;5058175;28;20799;-69
2023/10/01 05:42:49;;;;;;;10.07;6.40;;;9.10;54.60;;;;;;5058555;28;20201;-69
2023/10/01 05:45:18;;;;;;;12.70;7.80;;;9.20;54.10;;;;;;5040085;28;20195;-69
2023/10/01 05:47:54;;;;;;;11.43;6.77;;;9.30;54.40;;;;;;5058087;28;20458;-69
2023/10/01 05:50:22;;;;;;;13.03;7.27;;;9.30;53.80;;;;;;5058151;28;20468;-69
2023/10/01 05:52:50;;;;;;;13.10;8.33;;;9.30;53.90;;;;;;5058096;28;20458;-69
2023/10/01 05:55:15;;;;;;;11.50;6.30;;;9.40;54.80;;;;;;5058488;28;20412;-68
2023/10/01 05:57:44;;;;;;;11.73;7.40;;;9.50;54.50;;;;;;5057966;28;20488;-68
2023/10/01 06:00:26;;;;;;;13.40;8.27;;;9.50;54.10;;;;;;5058024;28;20193;-68
2023/10/01 06:03:00;;;;;;;12.67;9.30;;;9.60;52.90;;;;;;5058048;28;20503;-68
2023/10/01 06:05:33;;;;;;;13.87;8.13;;;9.70;53.60;;;;;;5039714;28;20422;-69
2023/10/01 06:08:12;;;;;;;12.53;8.63;;;9.80;53.10;;;;;;5057719;28;20969;-69
2023/10/01 06:10:59;;;;;;;11.57;8.90;;;9.80;52.10;;;;;;5057591;28;20414;-69
2023/10/01 06:13:28;;;;;;;10.93;7.47;;;9.90;51.50;;;;;;5057832;28;20415;-69
2023/10/01 06:15:56;;;;;;;14.40;8.53;;;10.00;50.30;;;;;;5036681;28;20427;-69
2023/10/01 06:18:22;;;;;;;9.63;6.57;;;10.10;51.40;;;;;;5054505;28;20417;-69
2023/10/01 06:20:50;;;;;;;15.00;8.03;;;10.20;51.10;;;;;;5054548;28;20468;-69
2023/10/01 06:23:16;;;;;;;10.80;7.60;;;10.30;49.50;;;;;;5036636;28;20436;-69
2023/10/01 06:25:43;;;;;;;14.43;7.70;;;10.40;48.20;;;;;;5054474;28;20789;-69
2023/10/01 06:28:09;;;;;;;11.30;7.13;;;10.50;45.80;;;;;;5054352;28;20590;-69
2023/10/01 06:30:39;;;;;;;12.87;8.27;;;10.60;44.60;;;;;;5054467;28;20409;-69
2023/10/01 06:33:05;;;;;;;12.20;8.10;;;10.70;44.40;;;;;;5036400;28;20435;-69
2023/10/01 06:35:33;;;;;;;8.87;7.20;;;10.80;43.30;;;;;;5054465;28;20777;-69
2023/10/01 06:37:59;;;;;;;11.43;8.40;;;10.90;42.00;;;;;;5054347;28;20835;-69
2023/10/01 06:40:31;;;;;;;8.80;6.70;;;11.00;36.10;;;;;;5054260;28;20410;-69
2023/10/01 06:42:59;;;;;;;12.60;7.90;;;11.00;37.80;;;;;;5054124;28;20411;-68
2023/10/01 06:45:41;;;;;;;11.37;7.63;;;11.10;37.10;;;;;;5054175;28;20441;-68
2023/10/01 06:48:14;;;;;;;13.97;8.07;;;11.20;35.60;;;;;;5054586;28;20457;-70
2023/10/01 06:50:40;;;;;;;11.87;8.80;;;11.30;34.60;;;;;;5054698;28;20397;-69
2023/10/01 06:53:09;;;;;;;12.47;7.83;;;11.40;33.80;;;;;;5054728;28;20413;-69
2023/10/01 06:55:36;;;;;;;13.40;7.93;;;11.50;31.90;;;;;;5036676;28;20431;-69
2023/10/01 06:58:06;;;;;;;15.43;8.40;;;11.50;31.60;;;;;;5054223;28;20413;-69
2023/10/01 07:00:36;;;;;;;13.67;9.50;;;11.70;31.80;;;;;;5054399;28;20421;-69
2023/10/01 07:03:18;;;;;;;9.90;7.20;;;11.70;30.10;;;;;;5054213;28;20409;-69
2023/10/01 07:05:51;;;;;;;12.77;9.20;;;11.80;28.00;;;;;;5054106;28;20777;-69
2023/10/01 07:08:18;;;;;;;13.33;7.53;;;11.90;27.20;;;;;;5035887;28;21020;-69
2023/10/01 07:10:50;;;;;;;12.20;7.63;;;12.00;25.60;;;;;;5035846;28;20457;-69
2023/10/01 07:13:16;;;;;;;11.00;8.50;;;12.10;25.00;;;;;;5053951;28;20413;-69
2023/10/01 07:15:46;;;;;;;10.63;7.40;;;12.20;25.20;;;;;;5035915;28;20421;-69
2023/10/01 07:18:19;;;;;;;13.40;7.60;;;12.30;25.20;;;;;;5053986;28;21009;-69
2023/10/01 07:20:49;;;;;;;10.73;7.97;;;12.40;22.70;;;;;;5035600;28;20444;-69
2023/10/01 07:23:15;;;;;;;16.17;7.43;;;12.50;22.70;;;;;;5053631;28;20416;-70
2023/10/01 07:25:47;;;;;;;10.03;6.77;;;12.50;22.70;;;;;;5053460;28;20512;-70
2023/10/01 07:28:12;;;;;;;15.27;8.30;;;12.50;22.40;;;;;;5053443;28;20464;-69
2023/10/01 07:30:46;;;;;;;14.00;8.23;;;12.60;21.50;;;;;;5053225;28;20414;-69
2023/10/01 07:33:17;;;;;;;12.80;7.87;;;12.70;21.30;;;;;;5053372;28;20219;-69
2023/10/01 07:35:44;;;;;;;11.97;7.90;;;12.90;19.90;;;;;;5052995;28;20895;-69
2023/10/01 07:38:14;;;;;;;14.17;7.30;;;13.10;19.10;;;;;;5035292;28;20443;-69
2023/10/01 07:40:57;;;;;;;11.43;7.60;;;13.10;19.20;;;;;;5053007;28;20421;-69
2023/10/01 07:43:27;;;;;;;15.90;9.30;;;13.20;17.70;;;;;;5053033;28;20491;-69
2023/10/01 07:45:58;;;;;;;13.17;8.87;;;13.20;16.80;;;;;;5052794;28;20483;-69
2023/10/01 07:48:27;;;;;;;16.03;9.57;;;13.20;16.30;;;;;;5052929;28;20458;-69
2023/10/01 07:50:55;;;;;;;13.57;8.20;;;13.30;16.30;;;;;;5053148;28;20429;-69
2023/10/01 07:53:23;;;;;;;19.20;9.57;;;13.50;16.20;;;;;;5052898;28;20472;-69
2023/10/01 07:55:48;;;;;;;10.90;7.27;;;13.60;16.60;;;;;;5052530;28;20412;-69
2023/10/01 07:58:24;;;;;;;7.57;6.60;;;14.10;14.40;;;;;;5052700;28;20915;-69
2023/10/01 08:00:59;;;;;;;20.20;9.83;;;14.30;11.40;;;;;;5052823;28;20207;-69
2023/10/01 08:06:05;;;;;;;11.00;7.40;;;14.80;9.80;;;;;;5052301;28;20409;-69
2023/10/01 08:08:37;;;;;;;13.93;7.50;;;15.20;7.60;;;;;;5052415;28;20924;-69
2023/10/01 08:11:55;;;;;;;10.37;7.27;;;15.10;6.20;;;;;;5076259;22;21682;-67
2023/10/01 08:13:57;;;;;;;11.00;7.47;;;15.20;7.10;;;;;;5071820;28;20485;-67
2023/10/01 08:16:23;;;;;;;12.50;8.60;;;15.60;5.20;;;;;;5072155;28;20475;-67
2023/10/01 08:18:57;;;;;;;10.77;7.13;;;15.50;5.90;;;;;;5072124;28;21004;-66
2023/10/01 08:21:30;;;;;;;15.27;7.80;;;15.40;5.30;;;;;;5071988;28;20436;-66
2023/10/01 08:23:57;;;;;;;12.23;7.23;;;15.60;4.60;;;;;;5071863;28;20407;-66
2023/10/01 08:26:43;;;;;;;12.67;7.73;;;15.50;5.00;;;;;;5072326;28;20404;-66
2023/10/01 08:29:09;;;;;;;11.63;7.27;;;15.40;5.40;;;;;;5072323;28;20459;-66
2023/10/01 08:34:27;;;;;;;17.60;8.70;;;15.40;7.00;;;;;;5071577;28;20867;-66
2023/10/01 08:36:55;;;;;;;13.00;7.50;;;15.40;6.80;;;;;;5071926;28;20910;-66
2023/10/01 08:39:33;;;;;;;12.53;7.27;;;15.40;7.10;;;;;;5071240;28;20777;-66
2023/10/01 08:42:08;;;;;;;11.30;6.90;;;15.50;6.50;;;;;;5071777;28;20427;-66
2023/10/01 08:44:50;;;;;;;11.97;8.50;;;15.60;5.90;;;;;;5071582;28;20411;-66
2023/10/01 08:47:31;;;;;;;16.00;9.70;;;15.60;5.20;;;;;;5071927;28;20408;-66
2023/10/01 08:52:55;;;;;;;15.63;8.20;;;15.70;5.10;;;;;;5072325;28;20957;-66
2023/10/01 08:56:32;;;;;;;13.07;7.83;;;15.70;5.60;;;;;;5071358;28;20416;-66
2023/10/01 08:58:28;;;;;;;15.13;9.33;;;15.90;5.70;;;;;;5065775;28;20427;-66
2023/10/01 09:01:11;;;;;;;16.57;9.93;;;16.00;4.80;;;;;;5071489;28;20415;-66
2023/10/01 09:03:38;;;;;;;9.80;7.70;;;16.10;4.80;;;;;;5072124;28;20449;-66
2023/10/01 09:06:08;;;;;;;13.87;8.77;;;16.30;4.30;;;;;;5071688;28;20829;-66
2023/10/01 09:08:43;;;;;;;15.63;8.13;;;16.40;4.10;;;;;;5072039;28;20847;-67
2023/10/01 09:11:16;;;;;;;12.70;8.60;;;16.60;3.30;;;;;;5072097;28;20475;-67
2023/10/01 09:14:14;;;;;;;12.17;6.83;;;16.80;2.20;;;;;;5070992;28;20759;-67
2023/10/01 09:16:42;;;;;;;13.60;8.33;;;17.00;2.00;;;;;;5072133;28;20907;-67
2023/10/01 09:21:55;;;;;;;13.53;8.17;;;17.40;1.00;;;;;;5073248;28;20478;-67
2023/10/01 09:24:34;;;;;;;8.77;6.50;;;17.50;1.00;;;;;;5072014;28;20919;-68
2023/10/01 09:27:18;;;;;;;10.07;7.13;;;17.80;1.00;;;;;;5072624;28;20495;-66
2023/10/01 09:29:44;;;;;;;12.50;7.10;;;17.90;1.00;;;;;;5072423;28;20795;-67
2023/10/01 09:32:13;;;;;;;13.53;7.53;;;18.00;1.00;;;;;;5072193;28;20431;-68
2023/10/01 09:34:53;;;;;;;8.80;7.10;;;18.20;1.00;;;;;;5072342;28;20407;-68
2023/10/01 09:37:35;;;;;;;12.90;6.67;;;18.30;1.00;;;;;;5072525;28;20427;-68
2023/10/01 09:40:05;;;;;;;16.80;7.20;;;18.50;1.00;;;;;;5071752;28;20419;-67
2023/10/01 09:42:44;;;;;;;11.40;7.07;;;18.70;1.00;;;;;;5072175;28;20477;-66
2023/10/01 09:45:26;;;;;;;9.77;7.10;;;18.90;1.00;;;;;;5072097;28;20401;-67
2023/10/01 09:48:07;;;;;;;12.87;7.37;;;19.10;1.00;;;;;;5072434;28;20463;-68
2023/10/01 09:50:44;;;;;;;12.93;7.43;;;19.20;1.00;;;;;;5074201;28;20415;-68
2023/10/01 09:53:15;;;;;;;9.40;6.57;;;19.30;1.00;;;;;;5074644;28;20934;-66
2023/10/01 09:55:48;;;;;;;13.37;7.80;;;19.40;1.00;;;;;;5076234;28;20408;-67
2023/10/01 09:58:28;;;;;;;9.80;6.73;;;19.50;1.00;;;;;;5075218;28;20781;-67
2023/10/01 10:01:08;;;;;;;7.83;5.40;;;19.60;1.00;;;;;;5075341;28;20476;-67
2023/10/01 10:03:38;;;;;;;10.90;7.47;;;19.70;1.00;;;;;;5075632;28;20429;-67
2023/10/01 10:06:06;;;;;;;8.00;5.77;;;19.80;1.00;;;;;;5075198;28;20423;-67
2023/10/01 10:08:34;;;;;;;12.77;7.63;;;20.00;1.00;;;;;;5075837;28;20456;-67
2023/10/01 10:11:02;;;;;;;8.03;6.33;;;20.20;1.00;;;;;;5074606;28;20442;-67
2023/10/01 10:13:46;;;;;;;10.83;6.53;;;20.30;1.00;;;;;;5075895;28;20396;-67
2023/10/01 10:19:31;;;;;;;15.07;9.30;;;20.40;1.00;;;;;;5066650;28;20417;-67
2023/10/01 10:24:29;;;;;;;14.37;9.87;;;20.70;1.00;;;;;;5074608;28;20412;-67
2023/10/01 10:27:00;;;;;;;15.40;8.73;;;20.70;1.00;;;;;;5075280;28;20493;-68
2023/10/01 10:29:57;;;;;;;8.70;7.43;;;20.80;1.00;;;;;;5075457;28;20573;-67
2023/10/01 10:32:30;;;;;;;11.27;6.83;;;21.00;1.00;;;;;;5075042;28;20969;-68
2023/10/01 10:35:14;;;;;;;9.27;7.30;;;21.10;1.00;;;;;;5075415;28;20495;-67
2023/10/01 10:37:44;;;;;;;13.17;9.53;;;21.20;1.00;;;;;;5075223;28;20396;-68
2023/10/01 10:43:04;;;;;;;11.90;7.70;;;21.50;1.00;;;;;;5075529;28;20431;-67
2023/10/01 10:45:42;;;;;;;9.37;7.37;;;21.60;1.00;;;;;;5075424;28;20403;-67
2023/10/01 10:48:09;;;;;;;10.90;6.30;;;21.70;1.00;;;;;;5074784;28;20452;-67
2023/10/01 10:50:53;;;;;;;9.20;6.43;;;21.70;1.00;;;;;;5074319;28;20827;-67
2023/10/01 10:53:37;;;;;;;11.77;8.00;;;22.00;1.00;;;;;;5076367;28;20404;-67
2023/10/01 10:56:10;;;;;;;10.67;8.00;;;22.20;1.00;;;;;;5074306;28;20984;-67
2023/10/01 10:58:41;;;;;;;12.60;9.30;;;22.30;1.00;;;;;;5074376;28;20418;-67
2023/10/01 11:01:18;;;;;;;10.37;7.27;;;22.40;1.00;;;;;;5074023;28;20436;-67
2023/10/01 11:03:57;;;;;;;12.10;8.33;;;22.40;1.00;;;;;;5073350;28;20419;-68
2023/10/01 11:06:24;;;;;;;8.87;7.97;;;22.50;1.00;;;;;;5074531;28;20420;-67
2023/10/01 11:08:53;;;;;;;12.27;7.77;;;22.60;1.00;;;;;;5075987;28;20455;-68
2023/10/01 11:11:30;;;;;;;11.93;8.57;;;22.70;1.00;;;;;;5072734;28;20448;-66
2023/10/01 11:14:03;;;;;;;11.03;8.00;;;22.70;1.00;;;;;;5073772;28;20989;-66
2023/10/01 11:16:39;;;;;;;11.50;7.37;;;22.80;1.00;;;;;;5075408;28;20404;-67
2023/10/01 11:19:13;;;;;;;11.27;8.30;;;22.90;1.00;;;;;;5073911;28;20408;-67
2023/10/01 11:21:59;;;;;;;12.10;7.53;;;23.10;1.00;;;;;;5074419;28;20942;-67
2023/10/01 11:24:35;;;;;;;10.77;7.13;;;23.20;1.00;;;;;;5073430;28;20822;-67
2023/10/01 11:27:46;;;;;;;14.00;9.60;;;23.30;1.00;;;;;;5074846;28;20407;-67
2023/10/01 11:30:28;;;;;;;9.00;7.57;;;23.30;1.00;;;;;;5074473;28;20436;-67
2023/10/01 11:32:58;;;;;;;12.57;8.00;;;23.30;1.00;;;;;;5073446;28;20416;-67
2023/10/01 11:35:33;;;;;;;10.03;7.60;;;23.30;1.00;;;;;;5073090;28;20408;-67
2023/10/01 11:38:13;;;;;;;10.00;7.80;;;23.40;1.00;;;;;;5073426;28;20400;-68
2023/10/01 11:43:35;;;;;;;10.10;7.00;;;23.60;1.00;;;;;;5075205;28;20411;-68
2023/10/01 11:46:18;;;;;;;10.00;8.93;;;23.70;1.00;;;;;;5074045;28;20395;-68
2023/10/01 11:48:56;;;;;;;17.63;8.70;;;23.80;1.00;;;;;;5074382;28;20889;-67
2023/10/01 11:51:43;;;;;;;12.37;8.10;;;24.10;1.00;;;;;;5073298;28;20427;-69
2023/10/01 11:54:10;;;;;;;10.10;6.80;;;24.30;1.00;;;;;;5072935;28;20971;-66
2023/10/01 11:56:37;;;;;;;9.43;7.37;;;24.40;1.00;;;;;;5073201;28;20930;-66
2023/10/01 11:59:05;;;;;;;9.63;7.70;;;24.40;1.00;;;;;;5073072;28;20404;-69
2023/10/01 12:01:39;;;;;;;11.43;8.60;;;24.30;1.00;;;;;;5073485;28;20447;-68
2023/10/01 12:04:08;;;;;;;12.00;7.80;;;24.20;1.00;;;;;;5071489;28;20514;-68
2023/10/01 12:06:34;;;;;;;11.53;8.33;;;24.40;1.00;;;;;;5073179;28;20420;-69
2023/10/01 12:09:00;;;;;;;13.33;8.50;;;24.50;1.00;;;;;;5071617;28;20460;-69
2023/10/01 12:11:29;;;;;;;16.30;8.40;;;24.50;1.00;;;;;;5072572;28;20463;-68
2023/10/01 12:14:05;;;;;;;12.70;8.80;;;24.40;1.00;;;;;;5071334;28;20440;-68
2023/10/01 12:16:32;;;;;;;11.50;7.17;;;24.50;1.00;;;;;;5071411;28;20452;-68
2023/10/01 12:19:22;;;;;;;12.93;7.30;;;24.40;1.00;;;;;;5071473;28;20416;-69
2023/10/01 12:21:45;;;;;;;13.13;8.17;;;24.60;1.00;;;;;;5073365;28;20435;-69
2023/10/01 12:24:13;;;;;;;9.43;7.83;;;24.60;1.00;;;;;;5072596;28;20428;-69
2023/10/01 12:26:43;;;;;;;12.63;8.10;;;24.70;1.00;;;;;;5071952;28;20189;-67
2023/10/01 12:29:13;;;;;;;9.97;7.20;;;24.70;1.00;;;;;;5073653;28;20910;-68
2023/10/01 12:31:44;;;;;;;13.27;9.87;;;24.70;1.00;;;;;;5073584;28;20420;-69
2023/10/01 12:34:10;;;;;;;9.40;7.60;;;24.80;1.00;;;;;;5072894;28;20412;-68
2023/10/01 12:36:44;;;;;;;9.50;7.03;;;24.80;1.00;;;;;;5073456;28;20800;-68
2023/10/01 12:44:31;;;;;;;13.40;8.17;;;25.00;1.00;;;;;;5072530;28;20415;-68
2023/10/01 12:47:01;;;;;;;9.57;8.40;;;25.00;1.00;;;;;;5072874;28;20416;-68
2023/10/01 12:49:28;;;;;;;8.20;7.27;;;24.90;1.00;;;;;;5072538;28;20463;-68
2023/10/01 12:51:54;;;;;;;13.30;8.20;;;25.10;1.00;;;;;;5071146;28;20579;-69
2023/10/01 12:54:27;;;;;;;9.03;7.50;;;25.30;1.00;;;;;;5072777;28;20420;-67
2023/10/01 12:57:09;;;;;;;12.80;8.10;;;25.40;1.00;;;;;;5070683;28;20422;-67
2023/10/01 12:59:44;;;;;;;8.57;7.07;;;25.40;1.00;;;;;;5072532;28;20624;-69
2023/10/01 13:02:22;;;;;;;11.80;7.57;;;25.20;1.00;;;;;;5072510;28;20431;-69
2023/10/01 13:05:16;;;;;;;11.87;8.50;;;25.10;1.00;;;;;;5072433;28;20423;-68
2023/10/01 13:08:05;;;;;;;11.07;8.47;;;25.10;1.00;;;;;;5072355;28;20499;-68
2023/10/01 13:10:34;;;;;;;12.10;7.97;;;25.20;1.00;;;;;;5073477;28;20433;-67
2023/10/01 13:13:02;;;;;;;14.70;8.83;;;25.40;1.00;;;;;;5071406;28;20482;-68
2023/10/01 13:15:33;;;;;;;10.60;8.37;;;25.30;1.00;;;;;;5071909;28;20417;-68
2023/10/01 13:18:00;;;;;;;7.67;6.67;;;25.20;1.00;;;;;;5072735;28;20424;-67
2023/10/01 13:20:30;;;;;;;11.10;8.00;;;25.30;1.00;;;;;;5072299;28;20415;-67
2023/10/01 13:22:59;;;;;;;10.10;6.77;;;25.20;1.00;;;;;;5072871;28;20438;-67
2023/10/01 13:25:26;;;;;;;9.53;6.93;;;25.40;1.00;;;;;;5073983;28;20422;-68
2023/10/01 13:28:02;;;;;;;10.07;7.40;;;25.60;1.00;;;;;;5075623;28;20456;-68
2023/10/01 13:30:30;;;;;;;11.60;7.93;;;25.70;1.00;;;;;;5076302;28;20536;-69
2023/10/01 13:33:14;;;;;;;9.20;8.10;;;25.50;1.00;;;;;;5076381;28;20509;-69
2023/10/01 13:35:50;;;;;;;12.40;7.20;;;25.60;1.00;;;;;;5076266;28;20849;-69
2023/10/01 14:11:06;;;;;;;9.63;7.27;;;25.80;1.00;;;;;;5097168;22;20554;-68
2023/10/01 14:13:35;;;;;;;18.57;9.90;;;25.70;1.00;;;;;;5055066;28;20456;-69
2023/10/01 14:16:11;;;;;;;10.60;8.73;;;25.90;1.00;;;;;;5055751;28;20778;-69
2023/10/01 14:21:29;;;;;;;10.03;8.43;;;25.70;1.00;;;;;;5055907;28;20428;-70
2023/10/01 14:26:43;;;;;;;9.37;7.90;;;25.80;1.00;;;;;;5055702;28;20248;-69